createdAt,value
2022-07-26T00:02:57.875Z,99783.56
2022-07-26T00:08:11.113Z,99776.09
2022-07-26T00:13:14.296Z,99771.13
2022-07-26T00:18:18.022Z,99776.56
2022-07-26T00:23:20.855Z,99773.81
2022-07-26T00:28:23.877Z,99780.09
2022-07-26T00:33:27.059Z,99772.00
2022-07-26T00:38:29.945Z,99764.78
2022-07-26T00:43:34.109Z,99768.91
2022-07-26T00:48:38.087Z,99765.56
2022-07-26T00:53:40.985Z,99764.31
2022-07-26T00:58:44.855Z,99754.53
2022-07-26T01:03:52.097Z,99756.00
2022-07-26T01:08:55.255Z,99723.44
2022-07-26T01:13:57.953Z,99742.06
2022-07-26T01:19:00.502Z,99742.84
2022-07-26T01:24:03.054Z,99760.13
2022-07-26T01:29:06.137Z,99765.50
2022-07-26T01:34:09.935Z,99751.81
2022-07-26T01:39:12.736Z,99745.81
2022-07-26T01:44:15.640Z,99727.34
2022-07-26T01:49:18.367Z,99743.53
2022-07-26T01:54:22.465Z,99731.47
2022-07-26T01:59:27.174Z,99745.56
2022-07-26T02:04:48.439Z,99746.97
2022-07-26T02:09:51.216Z,99746.66
2022-07-26T02:14:55.414Z,99743.75
2022-07-26T02:19:58.060Z,99743.97
2022-07-26T02:25:04.965Z,99752.84
2022-07-26T02:30:08.451Z,99736.47
2022-07-26T02:35:12.036Z,99732.47
2022-07-26T02:40:19.124Z,99707.13
2022-07-26T02:45:22.251Z,99725.34
2022-07-26T02:50:26.552Z,99726.19
2022-07-26T02:55:29.226Z,99732.53
2022-07-26T03:00:31.659Z,99733.66
2022-07-26T03:05:34.520Z,99732.53
2022-07-26T03:10:37.396Z,99749.44
2022-07-26T03:15:40.119Z,99806.94
2022-07-26T03:20:42.646Z,99772.16
2022-07-26T03:25:45.307Z,99770.63
2022-07-26T03:30:47.846Z,99756.00
2022-07-26T03:35:50.717Z,99747.53
2022-07-26T03:40:53.505Z,99747.19
2022-07-26T03:45:56.312Z,99760.59
2022-07-26T03:50:58.913Z,99749.22
2022-07-26T03:56:29.579Z,99757.22
2022-07-26T04:01:32.039Z,99759.00
2022-07-26T04:06:34.720Z,99770.75
2022-07-26T04:11:37.791Z,99767.78
2022-07-26T04:16:43.693Z,99788.56
2022-07-26T04:21:46.564Z,99784.94
2022-07-26T04:26:49.693Z,99768.47
2022-07-26T04:31:52.528Z,99756.50
2022-07-26T04:36:56.072Z,99775.47
2022-07-26T04:41:58.629Z,99794.81
2022-07-26T04:47:01.334Z,99750.00
2022-07-26T04:52:04.657Z,99754.75
2022-07-26T04:57:07.414Z,99773.03
2022-07-26T05:02:11.021Z,99769.53
2022-07-26T05:07:13.592Z,99783.91
2022-07-26T05:12:17.172Z,99782.44
2022-07-26T05:17:19.957Z,99816.09
2022-07-26T05:22:24.831Z,99836.91
2022-07-26T05:27:28.319Z,99862.22
2022-07-26T05:32:32.095Z,99860.44
2022-07-26T05:45:22.489Z,99897.84
2022-07-26T05:50:25.019Z,99920.44
2022-07-26T05:55:29.754Z,99935.88
2022-07-26T06:00:32.535Z,99948.69
2022-07-26T06:05:35.683Z,99957.06
2022-07-26T06:10:38.326Z,99961.28
2022-07-26T06:15:42.523Z,99915.88
2022-07-26T06:20:46.712Z,99873.72
2022-07-26T06:25:49.737Z,99894.78
2022-07-26T06:30:52.398Z,99908.56
2022-07-26T06:35:54.934Z,99893.13
2022-07-26T06:40:57.829Z,99915.53
2022-07-26T06:46:01.155Z,99895.16
2022-07-26T06:51:05.336Z,99929.00
2022-07-26T06:56:08.967Z,99929.31
2022-07-26T07:01:12.080Z,99905.66
2022-07-26T07:06:15.017Z,99905.16
2022-07-26T07:11:17.974Z,99897.72
2022-07-26T07:16:23.001Z,99921.66
2022-07-26T07:21:26.045Z,99933.16
2022-07-26T07:26:28.803Z,99942.16
2022-07-26T07:31:48.604Z,99919.78
2022-07-26T07:36:52.827Z,99921.09
2022-07-26T07:41:56.013Z,99918.72
2022-07-26T07:46:59.023Z,99926.47
2022-07-26T07:52:02.045Z,99951.31
2022-07-26T07:57:05.908Z,99965.56
2022-07-26T08:02:09.518Z,99958.72
2022-07-26T08:07:12.284Z,99970.69
2022-07-26T08:12:14.875Z,99960.34
2022-07-26T08:17:17.697Z,99973.81
2022-07-26T08:22:24.910Z,99985.88
2022-07-26T08:27:27.492Z,99985.31
2022-07-26T08:32:30.056Z,99989.22
2022-07-26T08:37:32.703Z,99994.38
2022-07-26T08:42:35.361Z,99995.94
2022-07-26T08:47:50.264Z,100006.72
2022-07-26T08:53:09.582Z,99987.44
2022-07-26T08:58:12.225Z,100000.56
2022-07-26T09:03:27.121Z,100021.81
2022-07-26T09:08:30.903Z,100022.81
2022-07-26T09:13:58.998Z,100038.59
2022-07-26T09:19:28.752Z,100044.22
2022-07-26T09:24:35.506Z,100045.44
2022-07-26T09:29:44.810Z,100049.41
2022-07-26T09:34:52.941Z,100046.34
2022-07-26T09:40:00.616Z,100064.13
2022-07-26T09:45:05.509Z,100060.13
2022-07-26T09:50:25.091Z,100069.69
2022-07-26T09:55:34.047Z,100087.22
2022-07-26T10:00:43.519Z,100075.38
2022-07-26T10:05:47.674Z,100091.41
2022-07-26T10:11:09.912Z,100099.00
2022-07-26T10:16:33.535Z,100100.69
2022-07-26T10:21:36.406Z,100094.28
2022-07-26T10:26:43.098Z,100105.16
2022-07-26T10:32:11.200Z,100106.91
2022-07-26T10:37:24.985Z,100102.75
2022-07-26T10:42:43.763Z,100111.84
2022-07-26T10:48:12.008Z,100111.16
2022-07-26T10:53:20.559Z,100112.50
2022-07-26T10:58:24.984Z,100129.63
2022-07-26T11:03:41.578Z,100119.31
2022-07-26T11:08:48.298Z,100130.16
2022-07-26T11:13:51.426Z,100109.31
2022-07-26T11:18:55.422Z,100121.19
2022-07-26T11:24:04.026Z,100130.97
2022-07-26T11:29:06.982Z,100128.84
2022-07-26T11:34:17.440Z,100124.94
2022-07-26T11:39:30.688Z,100129.38
2022-07-26T11:44:34.042Z,100128.41
2022-07-26T11:49:51.780Z,100118.38
2022-07-26T11:54:59.696Z,100124.88
2022-07-26T12:00:02.829Z,100118.91
2022-07-26T12:05:20.015Z,100118.28
2022-07-26T12:10:23.330Z,100114.88
2022-07-26T12:23:13.021Z,100096.81
2022-07-26T12:28:15.675Z,100097.56
2022-07-26T12:33:18.250Z,100103.78
2022-07-26T12:38:40.086Z,100097.19
2022-07-26T12:43:42.772Z,100087.50
2022-07-26T12:48:55.522Z,100090.63
2022-07-26T12:54:00.866Z,100075.34
2022-07-26T12:59:03.876Z,100076.69
2022-07-26T13:04:07.010Z,100088.34
2022-07-26T13:09:09.753Z,100083.78
2022-07-26T13:14:13.542Z,100078.34
2022-07-26T13:19:17.668Z,100073.78
2022-07-26T13:24:20.912Z,100080.34
2022-07-26T13:29:25.242Z,100078.22
2022-07-26T13:34:34.782Z,100083.78
2022-07-26T13:39:38.442Z,100089.34
2022-07-26T13:44:40.826Z,100079.28
2022-07-26T13:49:44.457Z,100057.78
2022-07-26T13:54:47.400Z,100075.47
2022-07-26T13:59:50.089Z,100067.13
2022-07-26T14:04:52.888Z,100066.91
2022-07-26T14:09:55.672Z,100064.19
2022-07-26T14:14:59.181Z,100061.22
2022-07-26T14:20:01.765Z,100064.88
2022-07-26T14:25:04.915Z,100071.09
2022-07-26T14:30:07.857Z,100070.16
2022-07-26T14:35:11.560Z,100061.41
2022-07-26T14:40:16.318Z,100064.22
2022-07-26T14:45:19.091Z,100062.94
2022-07-26T14:50:26.241Z,100075.53
2022-07-26T14:55:29.115Z,100056.97
2022-07-26T15:00:32.167Z,100062.06
2022-07-26T15:05:34.658Z,100062.69
2022-07-26T15:10:37.813Z,100072.94
2022-07-26T15:15:40.710Z,100064.13
2022-07-26T15:20:43.517Z,100052.63
2022-07-26T15:25:48.818Z,100067.22
2022-07-26T15:30:51.667Z,100063.03
2022-07-26T15:35:55.704Z,100057.66
2022-07-26T15:40:58.524Z,100049.75
2022-07-26T15:46:01.137Z,100065.94
2022-07-26T15:51:06.036Z,100053.25
2022-07-26T15:56:09.410Z,100046.94
2022-07-26T16:01:12.056Z,100054.13
2022-07-26T16:06:14.871Z,100026.56
2022-07-26T16:11:17.754Z,100058.03
2022-07-26T16:16:20.483Z,100059.00
2022-07-26T16:21:23.487Z,100068.97
2022-07-26T16:26:26.636Z,100074.66
2022-07-26T16:31:29.217Z,100085.91
2022-07-26T16:36:31.926Z,100078.81
2022-07-26T16:41:34.508Z,100082.06
2022-07-26T16:46:37.043Z,100082.06
2022-07-26T16:51:39.902Z,100081.22
2022-07-26T16:56:42.556Z,100087.88
2022-07-26T17:01:45.620Z,100089.88
2022-07-26T17:07:14.511Z,100099.91
2022-07-26T17:12:11.669Z,100103.13
2022-07-26T17:17:14.347Z,100096.63
2022-07-26T17:22:17.589Z,100107.88
2022-07-26T17:27:20.227Z,100103.13
2022-07-26T17:32:22.957Z,100103.69
2022-07-26T17:37:27.847Z,100106.16
2022-07-26T17:42:31.568Z,100104.94
2022-07-26T17:47:34.166Z,100109.00
2022-07-26T17:52:36.845Z,100116.31
2022-07-26T17:57:40.222Z,100123.81
2022-07-26T18:02:43.123Z,100131.09
2022-07-26T18:07:46.516Z,100137.59
2022-07-26T18:12:49.511Z,100110.78
2022-07-26T18:17:52.172Z,100138.38
2022-07-26T18:22:55.839Z,100148.53
2022-07-26T18:28:01.980Z,100147.97
2022-07-26T18:33:11.056Z,100163.03
2022-07-26T18:38:13.770Z,100174.38
2022-07-26T18:43:16.527Z,100180.44
2022-07-26T18:48:19.346Z,100181.88
2022-07-26T18:53:23.304Z,100187.22
2022-07-26T18:58:27.534Z,100191.59
2022-07-26T19:03:34.892Z,100204.97
2022-07-26T19:08:37.446Z,100214.41
2022-07-26T19:13:41.901Z,100215.56
2022-07-26T19:18:48.933Z,100223.38
2022-07-26T19:23:53.028Z,100235.38
2022-07-26T19:28:55.800Z,100233.81
2022-07-26T19:33:58.234Z,100244.06
2022-07-26T19:39:01.632Z,100234.44
2022-07-26T19:44:04.723Z,100248.13
2022-07-26T19:49:10.350Z,100252.25
2022-07-26T19:54:13.454Z,100257.47
2022-07-26T19:59:20.889Z,100274.28
2022-07-26T20:04:25.335Z,100257.50
2022-07-26T20:09:30.139Z,100273.56
2022-07-26T20:14:32.822Z,100291.25
2022-07-26T20:19:35.460Z,100282.22
2022-07-26T20:24:40.825Z,100297.28
2022-07-26T20:29:43.347Z,100296.81
2022-07-26T20:34:45.792Z,100296.50
2022-07-26T20:39:48.388Z,100313.84
2022-07-26T20:44:52.956Z,100323.91
2022-07-26T20:49:58.477Z,100328.94
2022-07-26T20:55:04.440Z,100327.19
2022-07-26T21:00:10.064Z,100330.91
2022-07-26T21:05:13.626Z,100341.72
2022-07-26T21:10:16.772Z,100346.47
2022-07-26T21:15:19.531Z,100346.63
2022-07-26T21:20:22.325Z,100347.25
2022-07-26T21:25:24.932Z,100351.56
2022-07-26T21:30:27.726Z,100366.97
2022-07-26T21:35:30.730Z,100357.28
2022-07-26T21:40:33.490Z,100352.88
2022-07-26T21:45:37.135Z,100363.59
2022-07-26T21:50:40.016Z,100381.69
2022-07-26T21:55:42.757Z,100383.34
2022-07-26T22:00:45.383Z,100384.81
2022-07-26T22:05:48.751Z,100379.63
2022-07-26T22:10:51.637Z,100381.72
2022-07-26T22:15:54.481Z,100378.34
2022-07-26T22:20:57.228Z,100390.09
2022-07-26T22:26:02.408Z,100383.22
2022-07-26T22:31:05.040Z,100390.25
2022-07-26T22:36:09.797Z,100398.78
2022-07-26T22:41:12.456Z,100398.50
2022-07-26T22:46:16.404Z,100393.91
2022-07-26T22:51:19.610Z,100403.53
2022-07-26T22:56:22.419Z,100414.72
2022-07-26T23:01:24.946Z,100405.06
2022-07-26T23:06:31.403Z,100406.41
2022-07-26T23:11:34.855Z,100421.34
2022-07-26T23:16:37.949Z,100416.53
2022-07-26T23:21:40.874Z,100414.13
2022-07-26T23:26:43.434Z,100405.22
2022-07-26T23:31:46.000Z,100421.13
2022-07-26T23:36:49.059Z,100420.81
2022-07-26T23:41:51.723Z,100423.66
2022-07-26T23:46:54.237Z,100418.25
2022-07-26T23:51:56.815Z,100415.63
2022-07-26T23:56:59.530Z,100425.19
